createdAt,value
2023-02-03T00:03:51.730Z,1.18
2023-02-03T00:07:53.825Z,1.09
2023-02-03T00:11:55.840Z,0.85
2023-02-03T00:15:57.786Z,0.73
2023-02-03T00:19:59.774Z,0.37
2023-02-03T00:24:01.759Z,0.21
2023-02-03T00:28:04.499Z,0.19
2023-02-03T00:32:06.570Z,0.17
2023-02-03T00:36:08.852Z,0.14
2023-02-03T00:40:11.790Z,0.08
2023-02-03T00:44:14.198Z,0.15
2023-02-03T00:48:16.236Z,0.21
2023-02-03T00:52:19.340Z,0.40
2023-02-03T00:56:21.578Z,0.51
2023-02-03T01:00:24.314Z,0.61
2023-02-03T01:04:26.786Z,0.74
2023-02-03T01:08:28.870Z,0.92
2023-02-03T01:12:31.140Z,1.08
2023-02-03T01:16:38.226Z,1.22
2023-02-03T01:20:40.347Z,1.29
2023-02-03T01:24:42.596Z,1.40
2023-02-03T01:28:44.923Z,1.47
2023-02-03T01:32:46.866Z,1.01
2023-02-03T01:36:48.811Z,0.68
2023-02-03T01:40:50.972Z,0.90
2023-02-03T01:44:53.246Z,0.75
2023-02-03T01:48:59.541Z,0.74
2023-02-03T01:53:05.120Z,0.74
2023-02-03T01:57:12.080Z,0.76
2023-02-03T02:01:14.337Z,0.60
2023-02-03T02:05:25.641Z,0.45
2023-02-03T02:09:28.058Z,0.44
2023-02-03T02:13:31.550Z,0.36
2023-02-03T02:17:43.773Z,0.33
2023-02-03T02:22:04.540Z,0.22
2023-02-03T02:26:25.902Z,0.13
2023-02-03T02:30:47.517Z,0.09
2023-02-03T02:35:15.692Z,0.13
2023-02-03T02:39:26.833Z,0.31
2023-02-03T02:43:34.839Z,0.42
2023-02-03T02:47:37.903Z,0.46
2023-02-03T02:51:43.957Z,0.53
2023-02-03T02:55:46.767Z,0.58
2023-02-03T02:59:48.811Z,0.48
2023-02-03T03:03:52.322Z,0.17
2023-02-03T03:07:57.896Z,0.09
2023-02-03T03:12:03.084Z,0.20
2023-02-03T03:16:07.863Z,0.22
2023-02-03T03:20:13.145Z,0.17
2023-02-03T03:24:20.688Z,0.20
2023-02-03T03:28:26.743Z,0.14
2023-02-03T03:32:30.787Z,-0.21
2023-02-03T03:36:52.973Z,-0.16
2023-02-03T03:41:00.261Z,-0.08
2023-02-03T03:45:16.292Z,0.06
2023-02-03T03:49:20.489Z,0.16
2023-02-03T03:53:23.667Z,0.21
2023-02-03T03:57:29.630Z,0.19
2023-02-03T04:01:32.574Z,0.09
2023-02-03T04:05:34.922Z,0.01
2023-02-03T04:09:37.095Z,0.00
2023-02-03T04:13:39.677Z,-0.01
2023-02-03T04:17:42.134Z,-0.01
2023-02-03T04:21:44.091Z,0.12
2023-02-03T04:25:46.007Z,0.26
2023-02-03T04:29:48.350Z,0.38
2023-02-03T04:33:50.273Z,0.44
2023-02-03T04:37:52.278Z,0.53
2023-02-03T04:41:54.499Z,0.56
2023-02-03T04:45:56.435Z,0.61
2023-02-03T04:49:58.388Z,0.33
2023-02-03T04:54:00.408Z,0.09
2023-02-03T04:58:02.449Z,0.15
2023-02-03T05:02:05.073Z,0.26
2023-02-03T05:06:07.218Z,0.28
2023-02-03T05:10:09.537Z,0.29
2023-02-03T05:14:11.915Z,0.42
2023-02-03T05:18:14.215Z,0.37
2023-02-03T05:22:17.104Z,0.26
2023-02-03T05:26:19.227Z,0.24
2023-02-03T05:30:21.385Z,0.23
2023-02-03T05:34:23.339Z,0.28
2023-02-03T05:38:25.305Z,0.21
2023-02-03T05:42:27.199Z,0.20
2023-02-03T05:46:29.131Z,0.19
2023-02-03T05:50:36.775Z,0.25
2023-02-03T05:54:42.988Z,0.38
2023-02-03T05:58:44.989Z,0.40
2023-02-03T06:02:57.231Z,0.37
2023-02-03T06:06:59.376Z,0.56
2023-02-03T06:11:01.410Z,0.69
2023-02-03T06:19:41.031Z,0.37
2023-02-03T06:23:43.201Z,0.23
2023-02-03T06:27:45.262Z,0.42
2023-02-03T06:31:47.504Z,0.43
2023-02-03T06:35:49.633Z,0.43
2023-02-03T06:39:51.941Z,0.52
2023-02-03T06:43:53.982Z,0.63
2023-02-03T06:47:55.970Z,0.78
2023-02-03T06:51:58.725Z,0.75
2023-02-03T06:56:02.290Z,1.04
2023-02-03T07:00:04.515Z,1.09
2023-02-03T07:04:06.814Z,1.21
2023-02-03T07:08:08.861Z,1.22
2023-02-03T07:12:10.883Z,1.22
2023-02-03T07:16:12.932Z,1.43
2023-02-03T07:20:15.038Z,1.27
2023-02-03T07:24:17.222Z,1.42
2023-02-03T07:28:19.172Z,1.62
2023-02-03T07:32:21.416Z,2.02
2023-02-03T07:36:24.441Z,2.37
2023-02-03T07:40:26.764Z,2.63
2023-02-03T07:44:28.880Z,2.84
2023-02-03T07:48:30.890Z,2.83
2023-02-03T07:52:33.218Z,3.04
2023-02-03T07:56:35.215Z,3.27
2023-02-03T08:00:37.405Z,3.47
2023-02-03T08:04:39.560Z,3.55
2023-02-03T08:08:42.125Z,3.65
2023-02-03T08:12:45.401Z,3.91
2023-02-03T08:16:47.368Z,4.14
2023-02-03T08:20:49.539Z,4.24
2023-02-03T08:24:51.556Z,4.28
2023-02-03T08:28:53.507Z,4.24
2023-02-03T08:32:55.544Z,4.28
2023-02-03T08:36:57.690Z,4.55
2023-02-03T08:40:59.620Z,4.79
2023-02-03T08:45:03.994Z,4.93
2023-02-03T08:49:07.029Z,5.01
2023-02-03T08:53:09.612Z,4.85
2023-02-03T08:57:11.617Z,4.92
2023-02-03T09:01:15.034Z,5.06
2023-02-03T09:05:18.582Z,5.38
2023-02-03T09:09:21.051Z,5.06
2023-02-03T09:13:23.316Z,4.88
2023-02-03T09:17:25.273Z,4.73
2023-02-03T09:21:36.237Z,4.95
2023-02-03T09:25:40.855Z,5.38
2023-02-03T09:29:43.168Z,5.67
2023-02-03T09:33:46.299Z,6.17
2023-02-03T09:37:49.013Z,6.31
2023-02-03T09:41:50.948Z,6.29
2023-02-03T09:45:53.098Z,6.28
2023-02-03T09:50:00.604Z,6.34
2023-02-03T09:54:16.531Z,6.37
2023-02-03T09:58:21.365Z,6.67
2023-02-03T10:02:33.365Z,6.98
2023-02-03T10:06:35.341Z,7.17
2023-02-03T10:11:09.552Z,7.14
2023-02-03T10:15:30.480Z,7.37
2023-02-03T10:19:52.696Z,7.57
2023-02-03T10:23:57.202Z,7.77
2023-02-03T10:28:01.608Z,7.80
2023-02-03T10:32:05.761Z,7.96
2023-02-03T10:36:30.795Z,7.94
2023-02-03T10:40:32.913Z,8.00
2023-02-03T10:44:55.960Z,8.19
2023-02-03T10:48:58.047Z,8.37
2023-02-03T10:53:18.424Z,8.70
2023-02-03T10:57:20.452Z,9.06
2023-02-03T11:01:24.934Z,9.50
2023-02-03T11:05:26.946Z,9.85
2023-02-03T11:09:33.786Z,10.13
2023-02-03T11:13:36.293Z,10.31
2023-02-03T11:17:43.843Z,10.68
2023-02-03T11:21:50.555Z,10.90
2023-02-03T11:25:52.589Z,11.10
2023-02-03T11:30:07.226Z,11.22
2023-02-03T11:34:33.407Z,11.43
2023-02-03T11:38:36.999Z,11.59
2023-02-03T11:42:41.514Z,11.57
2023-02-03T11:46:44.921Z,11.78
2023-02-03T11:50:49.871Z,11.88
2023-02-03T11:55:10.605Z,11.65
2023-02-03T11:59:24.976Z,11.84
2023-02-03T12:03:36.102Z,12.06
2023-02-03T12:07:49.831Z,12.24
2023-02-03T12:12:07.786Z,12.14
2023-02-03T12:16:13.005Z,12.40
2023-02-03T12:20:21.237Z,12.50
2023-02-03T12:24:24.365Z,12.73
2023-02-03T12:28:34.076Z,12.58
2023-02-03T12:32:39.428Z,12.41
2023-02-03T12:36:45.781Z,12.31
2023-02-03T12:40:52.618Z,11.93
2023-02-03T12:45:01.192Z,12.04
2023-02-03T12:49:03.421Z,12.11
2023-02-03T12:53:17.688Z,12.33
2023-02-03T12:57:38.652Z,12.51
2023-02-03T13:01:45.846Z,12.33
2023-02-03T13:06:03.070Z,12.56
2023-02-03T13:10:23.958Z,12.80
2023-02-03T13:14:33.571Z,12.66
2023-02-03T13:18:37.670Z,12.51
2023-02-03T13:22:39.735Z,12.51
2023-02-03T13:26:51.100Z,12.47
2023-02-03T13:30:53.064Z,12.08
2023-02-03T13:35:18.686Z,12.23
2023-02-03T13:39:34.169Z,12.15
2023-02-03T13:43:39.450Z,12.27
2023-02-03T13:47:46.698Z,12.19
2023-02-03T13:51:48.679Z,12.12
2023-02-03T13:56:01.759Z,11.87
2023-02-03T14:00:23.723Z,11.96
2023-02-03T14:04:25.784Z,12.15
2023-02-03T14:08:27.863Z,12.13
2023-02-03T14:12:29.852Z,12.16
2023-02-03T14:16:52.683Z,12.35
2023-02-03T14:20:58.286Z,12.40
2023-02-03T14:25:05.691Z,12.14
2023-02-03T14:29:09.112Z,12.11
2023-02-03T14:33:11.079Z,12.20
2023-02-03T14:37:16.085Z,12.18
2023-02-03T14:41:24.122Z,12.30
2023-02-03T14:45:45.006Z,12.41
2023-02-03T14:49:53.131Z,12.54
2023-02-03T14:53:58.342Z,12.51
2023-02-03T14:58:02.740Z,12.42
2023-02-03T15:02:15.210Z,12.38
2023-02-03T15:06:40.175Z,12.13
2023-02-03T15:10:44.219Z,12.04
2023-02-03T15:14:46.328Z,11.96
2023-02-03T15:19:03.042Z,11.75
2023-02-03T15:23:18.768Z,11.64
2023-02-03T15:27:25.385Z,11.57
2023-02-03T15:31:33.042Z,11.56
2023-02-03T15:35:42.869Z,11.53
2023-02-03T15:39:51.168Z,11.45
2023-02-03T15:43:58.627Z,11.37
2023-02-03T15:48:12.731Z,11.31
2023-02-03T15:52:17.265Z,11.21
2023-02-03T15:56:26.647Z,11.07
2023-02-03T16:00:39.751Z,10.97
2023-02-03T16:04:43.124Z,10.77
2023-02-03T16:08:46.496Z,10.63
2023-02-03T16:12:48.645Z,10.46
2023-02-03T16:17:04.741Z,10.29
2023-02-03T16:21:24.884Z,10.14
2023-02-03T16:25:28.716Z,9.99
2023-02-03T16:29:54.621Z,9.87
2023-02-03T16:34:15.262Z,9.64
2023-02-03T16:38:36.465Z,9.48
2023-02-03T16:42:58.581Z,9.13
2023-02-03T16:47:19.227Z,8.83
2023-02-03T16:51:21.783Z,8.64
2023-02-03T16:55:23.889Z,8.59
2023-02-03T16:59:25.929Z,8.55
2023-02-03T17:03:28.525Z,8.47
2023-02-03T17:07:30.535Z,8.58
2023-02-03T17:11:32.547Z,8.54
2023-02-03T17:15:35.196Z,8.66
2023-02-03T17:19:37.258Z,8.72
2023-02-03T17:23:39.585Z,8.78
2023-02-03T17:27:41.856Z,8.84
2023-02-03T17:31:44.102Z,8.85
2023-02-03T17:35:46.313Z,8.82
2023-02-03T17:57:05.870Z,8.83
2023-02-03T18:01:17.708Z,8.79
2023-02-03T18:05:19.777Z,8.76
2023-02-03T18:09:21.835Z,8.69
2023-02-03T18:13:26.213Z,8.64
2023-02-03T18:17:28.220Z,8.61
2023-02-03T18:21:32.492Z,8.58
2023-02-03T18:25:37.672Z,8.49
2023-02-03T18:29:41.143Z,8.34
2023-02-03T18:33:43.770Z,8.24
2023-02-03T18:37:45.918Z,8.19
2023-02-03T18:41:48.002Z,8.15
2023-02-03T18:45:50.259Z,8.06
2023-02-03T18:49:52.302Z,7.93
2023-02-03T18:53:58.206Z,7.89
2023-02-03T18:58:00.415Z,7.77
2023-02-03T19:02:03.534Z,7.65
2023-02-03T19:06:09.949Z,7.64
2023-02-03T19:10:12.017Z,7.67
2023-02-03T19:14:14.415Z,7.58
2023-02-03T19:18:16.521Z,7.62
2023-02-03T19:22:18.582Z,7.56
2023-02-03T19:26:20.775Z,7.64
2023-02-03T19:30:23.116Z,7.70
2023-02-03T19:34:26.958Z,7.75
2023-02-03T19:38:30.600Z,7.79
2023-02-03T19:42:32.733Z,7.85
2023-02-03T19:46:37.270Z,7.89
2023-02-03T19:50:40.945Z,7.94
2023-02-03T19:54:42.994Z,8.00
2023-02-03T19:58:50.653Z,8.10
2023-02-03T20:02:52.751Z,8.22
2023-02-03T20:06:54.818Z,8.28
2023-02-03T20:10:56.971Z,8.31
2023-02-03T20:15:01.584Z,8.30
2023-02-03T20:19:04.585Z,8.29
2023-02-03T20:23:06.760Z,8.23
2023-02-03T20:27:08.870Z,8.09
2023-02-03T20:31:11.202Z,7.98
2023-02-03T20:35:13.414Z,7.90
2023-02-03T20:39:19.834Z,7.80
2023-02-03T20:43:23.912Z,7.72
2023-02-03T20:47:26.255Z,7.64
2023-02-03T20:51:29.327Z,7.60
2023-02-03T20:55:31.432Z,7.59
2023-02-03T20:59:33.500Z,7.58
2023-02-03T21:03:54.059Z,7.55
2023-02-03T21:07:56.128Z,7.56
2023-02-03T21:11:58.452Z,7.53
2023-02-03T21:16:03.587Z,7.49
2023-02-03T21:20:13.446Z,7.41
2023-02-03T21:24:28.015Z,7.38
2023-02-03T21:28:32.447Z,7.32
2023-02-03T21:32:38.870Z,7.24
2023-02-03T21:36:40.816Z,7.20
2023-02-03T21:40:43.285Z,7.13
2023-02-03T21:44:45.318Z,7.12
2023-02-03T21:48:54.774Z,6.98
2023-02-03T21:53:21.624Z,6.81
2023-02-03T21:57:23.553Z,6.64
2023-02-03T22:01:27.196Z,6.62
2023-02-03T22:05:29.433Z,6.58
2023-02-03T22:09:31.506Z,6.76
2023-02-03T22:13:33.671Z,6.94
2023-02-03T22:17:36.542Z,7.16
2023-02-03T22:21:39.089Z,7.27
2023-02-03T22:25:41.392Z,7.34
2023-02-03T22:29:43.361Z,7.29
2023-02-03T22:33:45.553Z,7.33
2023-02-03T22:37:47.712Z,7.33
2023-02-03T22:41:49.628Z,7.29
2023-02-03T22:45:52.117Z,7.22
2023-02-03T22:49:54.255Z,7.16
2023-02-03T22:53:56.399Z,7.10
2023-02-03T22:57:59.392Z,7.06
2023-02-03T23:02:01.747Z,7.03
2023-02-03T23:06:04.172Z,7.01
2023-02-03T23:10:07.242Z,6.93
2023-02-03T23:14:10.783Z,6.42
2023-02-03T23:18:12.946Z,6.33
2023-02-03T23:22:15.050Z,6.37
2023-02-03T23:26:17.365Z,6.39
2023-02-03T23:30:19.826Z,6.28
2023-02-03T23:34:41.665Z,5.60
2023-02-03T23:38:43.643Z,4.62
2023-02-03T23:42:45.868Z,4.65
2023-02-03T23:46:48.083Z,4.72
2023-02-03T23:50:50.393Z,4.98
2023-02-03T23:54:52.379Z,4.25
2023-02-03T23:58:54.324Z,4.54
